JAL625 RJTT-RJFT
Flight info
| Callsign | JAL625 |
|---|---|
| Flight time | N/A |
| Altitude | 32000 |
| Route | NINOX4 NINOX Y28 ONDOC Y452 OOITA Y40 KAZMA KAZMA |
| Aircraft | B738/M-V/N |
Departure
| Time | N/A |
|---|---|
| Airport | Tokyo Haneda International Airport (RJTT) |
Arrival
| Time | 2026-05-04 03:46 |
|---|---|
| Airport | Kumamoto Airport (RJFT) |
| Time | Latitude | Longitude | Altitude | Speed | Heading |
|---|---|---|---|---|---|
| 2026-05-04 02:32 | 35.30043 | 137.07213 | 31719 ft | 369 kts | 250° |
| 2026-05-04 02:32 | 35.28751 | 137.01454 | 31724 ft | 337 kts | 250° |
| 2026-05-04 02:33 | 35.28155 | 136.98792 | 31696 ft | 312 kts | 250° |
| 2026-05-04 02:33 | 35.27605 | 136.96350 | 31667 ft | 296 kts | 249° |
| 2026-05-04 02:33 | 35.27052 | 136.93917 | 31711 ft | 300 kts | 249° |
| 2026-05-04 02:33 | 35.26482 | 136.91420 | 31714 ft | 308 kts | 249° |
| 2026-05-04 02:34 | 35.25513 | 136.87129 | 31724 ft | 321 kts | 250° |
| 2026-05-04 02:34 | 35.24313 | 136.81768 | 31721 ft | 335 kts | 250° |
| 2026-05-04 02:35 | 35.23271 | 136.77120 | 31719 ft | 345 kts | 250° |
| 2026-05-04 02:35 | 35.21984 | 136.71380 | 31715 ft | 355 kts | 250° |
| 2026-05-04 02:36 | 35.20657 | 136.65482 | 31712 ft | 364 kts | 250° |
| 2026-05-04 02:36 | 35.19296 | 136.59450 | 31702 ft | 370 kts | 250° |
| 2026-05-04 02:37 | 35.17916 | 136.53346 | 31728 ft | 376 kts | 250° |
| 2026-05-04 02:37 | 35.16523 | 136.47198 | 31711 ft | 379 kts | 249° |
| 2026-05-04 02:38 | 35.15116 | 136.41003 | 31738 ft | 380 kts | 250° |
| 2026-05-04 02:38 | 35.13694 | 136.34762 | 31733 ft | 382 kts | 249° |
| 2026-05-04 02:39 | 35.12268 | 136.28520 | 31749 ft | 382 kts | 249° |
| 2026-05-04 02:39 | 35.10846 | 136.22314 | 31749 ft | 381 kts | 249° |
| 2026-05-04 02:40 | 35.09418 | 136.16086 | 31749 ft | 380 kts | 250° |
| 2026-05-04 02:40 | 35.07996 | 136.09895 | 31737 ft | 378 kts | 250° |
| 2026-05-04 02:41 | 35.06574 | 136.03720 | 31745 ft | 377 kts | 250° |
| 2026-05-04 02:41 | 35.05157 | 135.97578 | 31774 ft | 375 kts | 250° |
| 2026-05-04 02:42 | 35.03755 | 135.91491 | 31763 ft | 374 kts | 250° |
| 2026-05-04 02:42 | 35.02345 | 135.85388 | 31762 ft | 373 kts | 250° |
| 2026-05-04 02:43 | 35.01048 | 135.79264 | 31782 ft | 373 kts | 252° |
| 2026-05-04 02:43 | 34.99924 | 135.73082 | 31777 ft | 373 kts | 252° |
| 2026-05-04 02:44 | 34.99185 | 135.68999 | 31775 ft | 372 kts | 252° |
| 2026-05-04 02:44 | 34.98075 | 135.62934 | 31773 ft | 371 kts | 252° |
| 2026-05-04 02:45 | 34.96941 | 135.56805 | 31783 ft | 371 kts | 252° |
| 2026-05-04 02:45 | 34.95802 | 135.50680 | 31783 ft | 370 kts | 252° |
| 2026-05-04 02:46 | 34.94666 | 135.44573 | 31781 ft | 369 kts | 252° |
| 2026-05-04 02:46 | 34.93535 | 135.38524 | 31794 ft | 368 kts | 252° |
| 2026-05-04 02:47 | 34.92377 | 135.32444 | 31783 ft | 368 kts | 252° |
| 2026-05-04 02:47 | 34.91184 | 135.26382 | 31789 ft | 367 kts | 252° |
| 2026-05-04 02:48 | 34.89992 | 135.20331 | 31788 ft | 367 kts | 252° |
| 2026-05-04 02:48 | 34.88810 | 135.14327 | 31800 ft | 367 kts | 252° |
| 2026-05-04 02:49 | 34.87617 | 135.08281 | 31807 ft | 367 kts | 252° |
| 2026-05-04 02:49 | 34.86425 | 135.02246 | 31809 ft | 366 kts | 252° |
| 2026-05-04 02:50 | 34.85247 | 134.96207 | 31805 ft | 367 kts | 252° |
| 2026-05-04 02:50 | 34.84114 | 134.90153 | 31803 ft | 367 kts | 252° |
| 2026-05-04 02:51 | 34.82986 | 134.84142 | 31828 ft | 367 kts | 252° |
| 2026-05-04 02:51 | 34.81842 | 134.78088 | 31830 ft | 367 kts | 252° |
| 2026-05-04 02:52 | 34.80698 | 134.72048 | 31832 ft | 365 kts | 252° |
| 2026-05-04 02:52 | 34.79554 | 134.66031 | 31836 ft | 364 kts | 252° |
| 2026-05-04 02:53 | 34.78412 | 134.60079 | 31840 ft | 363 kts | 252° |
| 2026-05-04 02:53 | 34.77259 | 134.54102 | 31836 ft | 363 kts | 252° |
| 2026-05-04 02:54 | 34.76106 | 134.48130 | 31841 ft | 362 kts | 252° |
| 2026-05-04 02:54 | 34.74982 | 134.42311 | 31843 ft | 363 kts | 252° |
| 2026-05-04 02:55 | 34.73281 | 134.33391 | 31831 ft | 362 kts | 252° |
| 2026-05-04 02:56 | 34.72139 | 134.27424 | 31844 ft | 362 kts | 252° |
| 2026-05-04 02:56 | 34.70991 | 134.21458 | 31837 ft | 363 kts | 252° |
| 2026-05-04 02:57 | 34.69834 | 134.15498 | 31829 ft | 363 kts | 252° |
| 2026-05-04 02:57 | 34.68678 | 134.09580 | 31829 ft | 362 kts | 252° |
| 2026-05-04 02:58 | 34.67515 | 134.03621 | 31820 ft | 362 kts | 252° |
| 2026-05-04 02:58 | 34.66014 | 133.97821 | 31807 ft | 359 kts | 247° |
| 2026-05-04 02:59 | 34.64254 | 133.92140 | 31806 ft | 359 kts | 247° |
| 2026-05-04 02:59 | 34.62507 | 133.86498 | 31811 ft | 359 kts | 247° |
| 2026-05-04 03:00 | 34.60761 | 133.80829 | 31813 ft | 359 kts | 247° |
| 2026-05-04 03:00 | 34.59008 | 133.75136 | 31821 ft | 360 kts | 247° |
| 2026-05-04 03:01 | 34.57258 | 133.69457 | 31829 ft | 359 kts | 247° |
| 2026-05-04 03:01 | 34.55516 | 133.63818 | 31837 ft | 360 kts | 247° |
| 2026-05-04 03:02 | 34.53726 | 133.58161 | 31852 ft | 359 kts | 246° |
| 2026-05-04 03:02 | 34.51871 | 133.52554 | 31865 ft | 358 kts | 246° |
| 2026-05-04 03:03 | 34.50019 | 133.46954 | 31863 ft | 358 kts | 246° |
| 2026-05-04 03:03 | 34.48485 | 133.42298 | 31867 ft | 358 kts | 246° |
| 2026-05-04 03:04 | 34.46353 | 133.35770 | 31869 ft | 359 kts | 247° |
| 2026-05-04 03:04 | 34.44581 | 133.30115 | 31886 ft | 358 kts | 247° |
| 2026-05-04 03:05 | 34.43110 | 133.25429 | 31866 ft | 358 kts | 247° |
| 2026-05-04 03:05 | 34.41333 | 133.19802 | 31876 ft | 357 kts | 247° |
| 2026-05-04 03:06 | 34.39260 | 133.13277 | 31872 ft | 358 kts | 247° |
| 2026-05-04 03:06 | 34.38073 | 133.09563 | 31863 ft | 360 kts | 246° |
| 2026-05-04 03:07 | 34.36577 | 133.04877 | 31873 ft | 359 kts | 246° |
| 2026-05-04 03:07 | 34.34771 | 132.99231 | 31858 ft | 360 kts | 246° |
| 2026-05-04 03:08 | 34.32963 | 132.93583 | 31853 ft | 360 kts | 246° |
| 2026-05-04 03:08 | 34.31153 | 132.87944 | 31881 ft | 360 kts | 246° |
| 2026-05-04 03:09 | 34.29377 | 132.82334 | 31884 ft | 360 kts | 247° |
| 2026-05-04 03:09 | 34.27593 | 132.76680 | 31897 ft | 360 kts | 246° |
| 2026-05-04 03:10 | 34.25803 | 132.71027 | 31801 ft | 363 kts | 246° |
| 2026-05-04 03:10 | 34.24602 | 132.67241 | 31581 ft | 365 kts | 246° |
| 2026-05-04 03:10 | 34.23987 | 132.65304 | 31482 ft | 365 kts | 246° |
| 2026-05-04 03:10 | 34.23080 | 132.62448 | 31313 ft | 364 kts | 246° |
| 2026-05-04 03:11 | 34.22138 | 132.59618 | 31144 ft | 362 kts | 243° |
| 2026-05-04 03:11 | 34.20944 | 132.56996 | 30980 ft | 360 kts | 238° |
| 2026-05-04 03:11 | 34.19573 | 132.54465 | 30822 ft | 361 kts | 235° |
| 2026-05-04 03:11 | 34.18022 | 132.52076 | 30646 ft | 363 kts | 230° |
| 2026-05-04 03:12 | 34.16266 | 132.49884 | 30497 ft | 363 kts | 228° |
| 2026-05-04 03:12 | 34.14473 | 132.47716 | 30313 ft | 366 kts | 228° |
| 2026-05-04 03:12 | 34.12667 | 132.45542 | 30159 ft | 367 kts | 228° |
| 2026-05-04 03:12 | 34.10861 | 132.43361 | 29996 ft | 368 kts | 228° |
| 2026-05-04 03:13 | 34.09050 | 132.41163 | 29816 ft | 370 kts | 228° |
| 2026-05-04 03:13 | 34.07264 | 132.38992 | 29621 ft | 371 kts | 228° |
| 2026-05-04 03:13 | 34.05441 | 132.36776 | 29439 ft | 372 kts | 228° |
| 2026-05-04 03:13 | 34.03613 | 132.34563 | 29249 ft | 374 kts | 227° |
| 2026-05-04 03:14 | 34.01770 | 132.32344 | 29060 ft | 375 kts | 227° |
| 2026-05-04 03:14 | 33.99924 | 132.30125 | 28875 ft | 376 kts | 227° |
| 2026-05-04 03:14 | 33.98069 | 132.27894 | 28690 ft | 377 kts | 227° |
| 2026-05-04 03:14 | 33.96209 | 132.25659 | 28511 ft | 378 kts | 227° |
| 2026-05-04 03:15 | 33.94345 | 132.23419 | 28272 ft | 380 kts | 227° |
| 2026-05-04 03:15 | 33.92355 | 132.21286 | 28015 ft | 385 kts | 222° |
| 2026-05-04 03:15 | 33.90206 | 132.19416 | 27792 ft | 388 kts | 218° |
| 2026-05-04 03:15 | 33.87857 | 132.17790 | 27609 ft | 394 kts | 213° |
| 2026-05-04 03:16 | 33.85386 | 132.16344 | 27414 ft | 395 kts | 212° |
| 2026-05-04 03:16 | 33.82913 | 132.14904 | 27221 ft | 396 kts | 212° |
| 2026-05-04 03:16 | 33.80426 | 132.13451 | 26956 ft | 399 kts | 212° |
| 2026-05-04 03:16 | 33.77926 | 132.11982 | 26656 ft | 401 kts | 212° |
| 2026-05-04 03:17 | 33.75421 | 132.10506 | 26362 ft | 402 kts | 212° |
| 2026-05-04 03:17 | 33.72902 | 132.09022 | 26073 ft | 404 kts | 212° |
| 2026-05-04 03:17 | 33.70378 | 132.07536 | 25793 ft | 405 kts | 212° |
| 2026-05-04 03:17 | 33.67875 | 132.06076 | 25567 ft | 405 kts | 212° |
| 2026-05-04 03:18 | 33.65334 | 132.04603 | 25368 ft | 405 kts | 212° |
| 2026-05-04 03:18 | 33.62803 | 132.03138 | 25162 ft | 405 kts | 212° |
| 2026-05-04 03:18 | 33.60264 | 132.01667 | 24952 ft | 405 kts | 212° |
| 2026-05-04 03:18 | 33.57732 | 132.00200 | 24750 ft | 404 kts | 212° |
| 2026-05-04 03:19 | 33.55205 | 131.98735 | 24545 ft | 403 kts | 212° |
| 2026-05-04 03:19 | 33.52686 | 131.97277 | 24348 ft | 401 kts | 212° |
| 2026-05-04 03:19 | 33.50176 | 131.95824 | 24141 ft | 400 kts | 212° |
| 2026-05-04 03:19 | 33.47740 | 131.94330 | 23941 ft | 396 kts | 216° |
| 2026-05-04 03:20 | 33.45462 | 131.92536 | 23743 ft | 390 kts | 222° |
| 2026-05-04 03:20 | 33.43359 | 131.90497 | 23542 ft | 388 kts | 223° |
| 2026-05-04 03:20 | 33.41255 | 131.88478 | 23312 ft | 387 kts | 223° |
| 2026-05-04 03:20 | 33.39151 | 131.86481 | 23062 ft | 387 kts | 223° |
| 2026-05-04 03:21 | 33.37039 | 131.84484 | 22831 ft | 386 kts | 223° |
| 2026-05-04 03:21 | 33.34933 | 131.82497 | 22596 ft | 386 kts | 223° |
| 2026-05-04 03:21 | 33.32823 | 131.80505 | 22359 ft | 386 kts | 223° |
| 2026-05-04 03:21 | 33.30720 | 131.78520 | 22130 ft | 385 kts | 223° |
| 2026-05-04 03:22 | 33.28642 | 131.76559 | 21902 ft | 385 kts | 223° |
| 2026-05-04 03:22 | 33.26541 | 131.74579 | 21672 ft | 385 kts | 223° |
| 2026-05-04 03:22 | 33.24473 | 131.72560 | 21442 ft | 382 kts | 227° |
| 2026-05-04 03:22 | 33.22657 | 131.70273 | 21220 ft | 379 kts | 232° |
| 2026-05-04 03:23 | 33.21033 | 131.67799 | 21000 ft | 377 kts | 237° |
| 2026-05-04 03:23 | 33.19684 | 131.65147 | 20775 ft | 372 kts | 243° |
| 2026-05-04 03:23 | 33.18488 | 131.62400 | 20568 ft | 373 kts | 244° |
| 2026-05-04 03:23 | 33.17295 | 131.59653 | 20350 ft | 373 kts | 244° |
| 2026-05-04 03:24 | 33.16098 | 131.56914 | 20137 ft | 371 kts | 244° |
| 2026-05-04 03:24 | 33.14898 | 131.54182 | 19926 ft | 371 kts | 244° |
| 2026-05-04 03:24 | 33.13714 | 131.51497 | 19721 ft | 371 kts | 244° |
| 2026-05-04 03:24 | 33.12504 | 131.48764 | 19330 ft | 372 kts | 244° |
| 2026-05-04 03:25 | 33.11285 | 131.46074 | 18907 ft | 365 kts | 243° |
| 2026-05-04 03:25 | 33.10076 | 131.43450 | 18485 ft | 355 kts | 244° |
| 2026-05-04 03:25 | 33.08921 | 131.40930 | 17971 ft | 337 kts | 244° |
| 2026-05-04 03:25 | 33.07830 | 131.38549 | 17460 ft | 319 kts | 245° |
| 2026-05-04 03:26 | 33.06793 | 131.36284 | 16939 ft | 304 kts | 245° |
| 2026-05-04 03:26 | 33.05814 | 131.34111 | 16432 ft | 292 kts | 245° |
| 2026-05-04 03:26 | 33.04883 | 131.32028 | 15938 ft | 285 kts | 246° |
| 2026-05-04 03:26 | 33.03962 | 131.29970 | 15462 ft | 279 kts | 246° |
| 2026-05-04 03:27 | 33.03056 | 131.27951 | 14976 ft | 272 kts | 246° |
| 2026-05-04 03:27 | 33.02173 | 131.25988 | 14502 ft | 266 kts | 246° |
| 2026-05-04 03:27 | 33.01390 | 131.24242 | 14081 ft | 262 kts | 246° |
| 2026-05-04 03:27 | 33.00546 | 131.22336 | 13603 ft | 259 kts | 247° |
| 2026-05-04 03:28 | 32.99710 | 131.20445 | 13084 ft | 257 kts | 247° |
| 2026-05-04 03:28 | 32.98870 | 131.18548 | 12589 ft | 260 kts | 247° |
| 2026-05-04 03:28 | 32.98032 | 131.16655 | 12075 ft | 263 kts | 247° |
| 2026-05-04 03:28 | 32.97307 | 131.14661 | 11604 ft | 263 kts | 254° |
| 2026-05-04 03:29 | 32.96763 | 131.12576 | 11105 ft | 265 kts | 257° |
| 2026-05-04 03:29 | 32.96261 | 131.10487 | 10731 ft | 258 kts | 257° |
| 2026-05-04 03:29 | 32.95783 | 131.08498 | 10556 ft | 243 kts | 257° |
| 2026-05-04 03:29 | 32.95324 | 131.06604 | 10395 ft | 235 kts | 257° |
| 2026-05-04 03:30 | 32.94872 | 131.04752 | 10275 ft | 231 kts | 257° |
| 2026-05-04 03:30 | 32.94424 | 131.02931 | 10244 ft | 227 kts | 257° |
| 2026-05-04 03:30 | 32.93979 | 131.01133 | 10184 ft | 228 kts | 257° |
| 2026-05-04 03:30 | 32.93530 | 130.99322 | 10125 ft | 233 kts | 257° |
| 2026-05-04 03:31 | 32.93069 | 130.97472 | 10062 ft | 233 kts | 256° |
| 2026-05-04 03:31 | 32.92602 | 130.95607 | 10040 ft | 236 kts | 256° |
| 2026-05-04 03:31 | 32.92129 | 130.93721 | 10004 ft | 239 kts | 256° |
| 2026-05-04 03:31 | 32.91650 | 130.91812 | 9711 ft | 242 kts | 256° |
| 2026-05-04 03:32 | 32.91168 | 130.89901 | 9403 ft | 240 kts | 257° |
| 2026-05-04 03:32 | 32.90688 | 130.88001 | 9089 ft | 240 kts | 257° |
| 2026-05-04 03:32 | 32.90209 | 130.86102 | 8768 ft | 239 kts | 257° |
| 2026-05-04 03:32 | 32.89736 | 130.84231 | 8456 ft | 239 kts | 257° |
| 2026-05-04 03:33 | 32.89258 | 130.82337 | 8127 ft | 239 kts | 258° |
| 2026-05-04 03:33 | 32.88778 | 130.80442 | 7783 ft | 240 kts | 258° |
| 2026-05-04 03:33 | 32.88297 | 130.78538 | 7466 ft | 241 kts | 258° |
| 2026-05-04 03:33 | 32.87813 | 130.76623 | 7124 ft | 242 kts | 258° |
| 2026-05-04 03:34 | 32.87325 | 130.74699 | 6797 ft | 244 kts | 258° |
| 2026-05-04 03:34 | 32.86835 | 130.72769 | 6514 ft | 243 kts | 258° |
| 2026-05-04 03:34 | 32.86352 | 130.70876 | 6547 ft | 235 kts | 258° |
| 2026-05-04 03:34 | 32.85880 | 130.69018 | 6571 ft | 237 kts | 258° |
| 2026-05-04 03:35 | 32.85404 | 130.67144 | 6583 ft | 242 kts | 259° |
| 2026-05-04 03:35 | 32.84915 | 130.65217 | 6598 ft | 244 kts | 258° |
| 2026-05-04 03:35 | 32.84375 | 130.63297 | 6598 ft | 246 kts | 254° |
| 2026-05-04 03:35 | 32.83469 | 130.61553 | 6535 ft | 257 kts | 229° |
| 2026-05-04 03:36 | 32.81886 | 130.60458 | 6357 ft | 274 kts | 201° |
| 2026-05-04 03:36 | 32.79947 | 130.60342 | 6188 ft | 288 kts | 173° |
| 2026-05-04 03:36 | 32.78105 | 130.61277 | 6018 ft | 292 kts | 144° |
| 2026-05-04 03:36 | 32.76780 | 130.63075 | 5825 ft | 289 kts | 116° |
| 2026-05-04 03:37 | 32.76263 | 130.65332 | 5643 ft | 281 kts | 87° |
| 2026-05-04 03:37 | 32.76587 | 130.67570 | 5474 ft | 272 kts | 67° |
| 2026-05-04 03:37 | 32.77194 | 130.69662 | 5306 ft | 273 kts | 65° |
| 2026-05-04 03:37 | 32.77962 | 130.71699 | 5102 ft | 266 kts | 47° |
| 2026-05-04 03:38 | 32.79279 | 130.73128 | 4933 ft | 251 kts | 21° |
| 2026-05-04 03:38 | 32.80861 | 130.73894 | 4857 ft | 243 kts | 13° |
| 2026-05-04 03:38 | 32.82459 | 130.74545 | 4729 ft | 243 kts | 13° |
| 2026-05-04 03:38 | 32.84063 | 130.75183 | 4642 ft | 243 kts | 12° |
| 2026-05-04 03:39 | 32.85678 | 130.75820 | 4554 ft | 245 kts | 12° |
| 2026-05-04 03:39 | 32.87302 | 130.76453 | 4470 ft | 246 kts | 12° |
| 2026-05-04 03:39 | 32.88918 | 130.77075 | 4403 ft | 248 kts | 12° |
| 2026-05-04 03:39 | 32.90563 | 130.77704 | 4320 ft | 248 kts | 12° |
| 2026-05-04 03:40 | 32.92209 | 130.78332 | 4160 ft | 250 kts | 12° |
| 2026-05-04 03:40 | 32.93859 | 130.78962 | 3953 ft | 246 kts | 12° |
| 2026-05-04 03:40 | 32.95466 | 130.79578 | 3739 ft | 240 kts | 12° |
| 2026-05-04 03:40 | 32.97020 | 130.80234 | 3511 ft | 238 kts | 23° |
| 2026-05-04 03:41 | 32.98161 | 130.81670 | 3294 ft | 245 kts | 59° |
| 2026-05-04 03:41 | 32.98568 | 130.83608 | 3216 ft | 239 kts | 85° |
| 2026-05-04 03:41 | 32.98343 | 130.85468 | 3213 ft | 223 kts | 110° |
| 2026-05-04 03:41 | 32.97583 | 130.87027 | 3205 ft | 216 kts | 131° |
| 2026-05-04 03:42 | 32.96447 | 130.88203 | 3211 ft | 217 kts | 155° |
| 2026-05-04 03:42 | 32.95109 | 130.88943 | 3218 ft | 206 kts | 162° |
| 2026-05-04 03:42 | 32.93811 | 130.89568 | 3150 ft | 200 kts | 160° |
| 2026-05-04 03:42 | 32.92781 | 130.90695 | 2840 ft | 204 kts | 124° |
| 2026-05-04 03:43 | 32.91858 | 130.91952 | 2602 ft | 202 kts | 144° |
| 2026-05-04 03:43 | 32.90650 | 130.92711 | 2327 ft | 192 kts | 170° |
| 2026-05-04 03:43 | 32.89385 | 130.92883 | 2071 ft | 176 kts | 191° |
| 2026-05-04 03:43 | 32.88239 | 130.92629 | 1888 ft | 161 kts | 204° |
| 2026-05-04 03:44 | 32.87234 | 130.92117 | 1707 ft | 155 kts | 214° |
| 2026-05-04 03:44 | 32.86416 | 130.91409 | 1522 ft | 143 kts | 227° |
| 2026-05-04 03:44 | 32.85792 | 130.90530 | 1314 ft | 137 kts | 239° |
| 2026-05-04 03:44 | 32.85331 | 130.89542 | 1139 ft | 138 kts | 247° |
| 2026-05-04 03:45 | 32.84911 | 130.88515 | 988 ft | 137 kts | 250° |
| 2026-05-04 03:45 | 32.84518 | 130.87504 | 826 ft | 133 kts | 252° |
| 2026-05-04 03:45 | 32.84142 | 130.86519 | 656 ft | 126 kts | 243° |
| 2026-05-04 03:45 | 32.83816 | 130.85715 | 634 ft | 82 kts | 245° |
| 2026-05-04 03:46 | 32.83661 | 130.85326 | 630 ft | 33 kts | 245° |
| 2026-05-04 03:46 | 32.83572 | 130.85107 | 629 ft | 19 kts | 244° |
| 2026-05-04 03:46 | 32.83530 | 130.85045 | 620 ft | 8 kts | 200° |
| 2026-05-04 03:46 | 32.83476 | 130.85057 | 630 ft | 8 kts | 159° |
| 2026-05-04 03:47 | 32.83425 | 130.85087 | 627 ft | 8 kts | 147° |
| 2026-05-04 03:47 | 32.83403 | 130.85135 | 625 ft | 7 kts | 90° |
| 2026-05-04 03:47 | 32.83419 | 130.85188 | 627 ft | 7 kts | 66° |
| 2026-05-04 03:47 | 32.83441 | 130.85245 | 630 ft | 9 kts | 64° |
| 2026-05-04 03:48 | 32.83475 | 130.85329 | 631 ft | 13 kts | 64° |
| 2026-05-04 03:48 | 32.83517 | 130.85434 | 636 ft | 14 kts | 65° |
| 2026-05-04 03:48 | 32.83559 | 130.85539 | 634 ft | 14 kts | 64° |
| 2026-05-04 03:48 | 32.83588 | 130.85615 | 634 ft | 7 kts | 74° |
| 2026-05-04 03:49 | 32.83557 | 130.85653 | 636 ft | 7 kts | 159° |
| 2026-05-04 03:49 | 32.83513 | 130.85676 | 635 ft | 7 kts | 155° |
| 2026-05-04 03:49 | 32.83476 | 130.85697 | 635 ft | 5 kts | 155° |
| 2026-05-04 03:49 | 32.83465 | 130.85702 | 639 ft | 0 kts | 155° |